Time;durP1;ratioP1;P1;durP2;ratioP2;P2;SDS_P1;SDS_P2;PMS_P1;PMS_P2;Temp;Humidity;BMP_temperature;BMP_pressure;BME280_temperature;BME280_humidity;BME280_pressure;Samples;Min_cycle;Max_cycle;Signal;HPM_P1;HPM_P2
2023/08/01 00:00:08;;;;;;;6.82;4.63;;;16.90;99.90;;;;;;5020397;28;20382;-66
2023/08/01 00:02:35;;;;;;;9.02;5.07;;;16.80;99.90;;;;;;5020161;28;20133;-67
2023/08/01 00:05:01;;;;;;;7.57;4.43;;;16.90;99.90;;;;;;5019814;28;20506;-66
2023/08/01 00:07:28;;;;;;;11.10;4.60;;;16.90;99.90;;;;;;5019921;28;20119;-66
2023/08/01 00:09:54;;;;;;;9.10;4.88;;;16.70;99.90;;;;;;5019657;28;20046;-66
2023/08/01 00:12:20;;;;;;;9.90;4.20;;;16.90;99.90;;;;;;5019952;28;20115;-66
2023/08/01 00:14:47;;;;;;;7.75;4.25;;;16.80;99.90;;;;;;5019779;28;20049;-66
2023/08/01 00:17:13;;;;;;;8.25;4.38;;;16.80;99.90;;;;;;5019958;28;20061;-65
2023/08/01 00:19:39;;;;;;;9.13;4.53;;;16.70;99.90;;;;;;5019549;28;20440;-67
2023/08/01 00:22:06;;;;;;;10.57;4.43;;;16.70;99.90;;;;;;5019557;28;20045;-66
2023/08/01 00:24:32;;;;;;;7.22;3.78;;;16.70;99.90;;;;;;5002440;28;20052;-66
2023/08/01 00:26:58;;;;;;;9.48;4.03;;;16.80;99.90;;;;;;5019742;28;20065;-67
2023/08/01 00:29:24;;;;;;;9.55;4.32;;;16.70;99.90;;;;;;5019168;28;20045;-66
2023/08/01 00:31:51;;;;;;;9.38;4.40;;;16.80;99.90;;;;;;5003308;28;20045;-66
2023/08/01 00:34:17;;;;;;;10.45;3.97;;;16.80;99.90;;;;;;5019272;28;20045;-66
2023/08/01 00:36:43;;;;;;;9.00;3.83;;;16.60;99.90;;;;;;5019611;28;20053;-66
2023/08/01 00:39:09;;;;;;;8.13;3.90;;;16.60;99.90;;;;;;5037110;28;20052;-66
2023/08/01 00:41:36;;;;;;;9.75;3.88;;;16.60;99.90;;;;;;5038854;28;20048;-66
2023/08/01 00:44:02;;;;;;;10.15;4.30;;;16.60;99.90;;;;;;5039193;28;20045;-67
2023/08/01 00:46:29;;;;;;;9.60;4.05;;;16.60;99.90;;;;;;5038907;28;20045;-66
2023/08/01 00:48:57;;;;;;;10.13;4.47;;;16.50;99.90;;;;;;5039016;28;20045;-66
2023/08/01 00:51:25;;;;;;;7.85;4.28;;;16.70;99.90;;;;;;5022348;28;20061;-66
2023/08/01 00:53:52;;;;;;;9.65;5.03;;;16.70;99.90;;;;;;5039011;28;20078;-66
2023/08/01 00:56:19;;;;;;;7.80;4.30;;;16.60;99.90;;;;;;5038620;28;20059;-66
2023/08/01 00:58:45;;;;;;;8.63;3.90;;;16.60;99.90;;;;;;5039009;28;20053;-67
2023/08/01 01:01:11;;;;;;;7.47;4.22;;;16.50;99.90;;;;;;5038363;28;20041;-66
2023/08/01 01:03:39;;;;;;;9.02;4.80;;;16.50;99.90;;;;;;5038849;28;20134;-67
2023/08/01 01:06:05;;;;;;;9.73;3.97;;;16.60;99.90;;;;;;5038445;28;20358;-66
2023/08/01 01:08:31;;;;;;;9.07;3.92;;;16.60;99.90;;;;;;5038758;28;20429;-66
2023/08/01 01:10:58;;;;;;;10.25;4.25;;;16.50;99.90;;;;;;5021954;28;20060;-66
2023/08/01 01:13:24;;;;;;;8.70;3.72;;;16.50;99.90;;;;;;5022162;28;20060;-66
2023/08/01 01:15:50;;;;;;;10.32;4.57;;;16.40;99.90;;;;;;5038453;28;20072;-67
2023/08/01 01:18:17;;;;;;;12.00;4.15;;;16.40;99.90;;;;;;5038605;28;20057;-66
2023/08/01 01:20:43;;;;;;;11.98;4.32;;;16.20;99.90;;;;;;5038052;28;20060;-66
2023/08/01 01:23:10;;;;;;;8.85;4.35;;;16.30;99.90;;;;;;5022001;28;20446;-66
2023/08/01 01:25:38;;;;;;;10.13;3.90;;;16.20;99.90;;;;;;5038313;28;20049;-66
2023/08/01 01:28:07;;;;;;;9.85;3.97;;;16.20;99.90;;;;;;5022697;28;20360;-66
2023/08/01 01:30:33;;;;;;;8.80;4.10;;;16.10;99.90;;;;;;5038076;28;20053;-66
2023/08/01 01:33:01;;;;;;;8.73;3.72;;;16.00;99.90;;;;;;5038273;28;20084;-66
2023/08/01 01:35:28;;;;;;;8.55;4.30;;;16.00;99.90;;;;;;5037912;28;20060;-66
2023/08/01 01:37:55;;;;;;;7.72;3.63;;;16.00;99.90;;;;;;5030557;28;20427;-66
2023/08/01 01:40:21;;;;;;;10.98;4.18;;;16.10;99.90;;;;;;5035957;28;20042;-66
2023/08/01 01:42:49;;;;;;;6.93;3.47;;;16.00;99.90;;;;;;5018325;28;20049;-67
2023/08/01 01:45:15;;;;;;;8.35;3.35;;;16.00;99.90;;;;;;5018285;28;20108;-66
2023/08/01 01:47:41;;;;;;;8.80;4.00;;;16.10;99.90;;;;;;5018232;28;20166;-66
2023/08/01 01:50:08;;;;;;;10.13;3.45;;;16.00;99.90;;;;;;5017841;28;20049;-66
2023/08/01 01:52:34;;;;;;;9.15;4.30;;;16.00;99.90;;;;;;5001837;28;20061;-66
2023/08/01 01:55:00;;;;;;;7.72;3.47;;;16.00;99.90;;;;;;5017927;28;20473;-66
2023/08/01 01:57:27;;;;;;;10.10;3.63;;;16.20;99.90;;;;;;5018036;28;20112;-66
2023/08/01 01:59:53;;;;;;;7.82;3.65;;;16.10;99.90;;;;;;5017681;28;20105;-66
2023/08/01 02:02:19;;;;;;;7.05;3.85;;;16.20;99.90;;;;;;5017706;28;20049;-66
2023/08/01 02:04:50;;;;;;;11.40;3.42;;;16.20;99.90;;;;;;5001233;28;20045;-66
2023/08/01 02:07:17;;;;;;;9.15;4.40;;;16.10;99.90;;;;;;5017637;28;20081;-66
2023/08/01 02:09:43;;;;;;;9.13;3.38;;;16.10;99.90;;;;;;5001629;28;20390;-66
2023/08/01 02:12:13;;;;;;;8.65;3.63;;;16.20;99.90;;;;;;5017674;28;20068;-66
2023/08/01 02:14:40;;;;;;;9.60;3.33;;;16.20;99.90;;;;;;5001134;28;20046;-66
2023/08/01 02:17:07;;;;;;;8.15;3.65;;;16.10;99.90;;;;;;5017709;28;20080;-66
2023/08/01 02:19:34;;;;;;;9.60;3.17;;;16.20;99.90;;;;;;5001145;28;20052;-66
2023/08/01 02:22:00;;;;;;;11.13;3.45;;;16.10;99.90;;;;;;5017623;28;20053;-66
2023/08/01 02:24:26;;;;;;;9.27;3.55;;;16.20;99.90;;;;;;5017445;28;20049;-66
2023/08/01 02:26:53;;;;;;;9.93;3.30;;;16.10;99.90;;;;;;5001290;28;20053;-66
2023/08/01 02:29:19;;;;;;;7.60;3.60;;;16.00;99.90;;;;;;5017235;28;20433;-66
2023/08/01 02:31:45;;;;;;;7.13;3.60;;;16.00;99.90;;;;;;5017468;28;20108;-66
2023/08/01 02:34:11;;;;;;;9.00;3.95;;;15.90;99.90;;;;;;5017141;28;20049;-66
2023/08/01 02:36:40;;;;;;;6.85;3.65;;;16.00;99.90;;;;;;5017077;28;20100;-66
2023/08/01 02:39:06;;;;;;;9.95;4.18;;;15.80;99.90;;;;;;5034167;28;20049;-66
2023/08/01 02:41:33;;;;;;;9.68;3.92;;;15.80;99.90;;;;;;5036918;28;20450;-66
2023/08/01 02:43:59;;;;;;;8.77;3.60;;;15.80;99.90;;;;;;5020879;28;20453;-67
2023/08/01 02:46:27;;;;;;;10.70;4.22;;;15.70;99.90;;;;;;5036383;28;20048;-67
2023/08/01 02:48:54;;;;;;;6.70;3.47;;;15.80;99.90;;;;;;5037068;28;20358;-66
2023/08/01 02:51:20;;;;;;;8.75;3.83;;;15.60;99.90;;;;;;5036615;28;20049;-66
2023/08/01 02:53:46;;;;;;;8.63;3.88;;;15.70;99.90;;;;;;5037118;28;20174;-67
2023/08/01 02:56:13;;;;;;;9.60;3.70;;;15.60;99.90;;;;;;5036870;28;20048;-66
2023/08/01 02:58:39;;;;;;;9.40;4.53;;;15.70;99.90;;;;;;5036774;28;20400;-66
2023/08/01 03:01:12;;;;;;;7.82;3.78;;;15.60;99.90;;;;;;5036778;28;20049;-67
2023/08/01 03:03:38;;;;;;;10.73;4.07;;;15.70;99.90;;;;;;5020685;28;20041;-67
2023/08/01 03:06:04;;;;;;;6.85;3.65;;;15.60;99.90;;;;;;5036831;28;20049;-67
2023/08/01 03:08:30;;;;;;;10.57;3.90;;;15.70;99.90;;;;;;5036696;28;20057;-66
2023/08/01 03:10:57;;;;;;;8.05;4.00;;;15.70;99.90;;;;;;5036762;28;20071;-67
2023/08/01 03:13:24;;;;;;;10.13;4.05;;;15.60;99.90;;;;;;5036988;28;20366;-66
2023/08/01 03:15:50;;;;;;;12.10;4.57;;;15.70;99.90;;;;;;5036755;28;20053;-66
2023/08/01 03:18:16;;;;;;;14.25;5.80;;;15.70;99.90;;;;;;5018201;28;20057;-66
2023/08/01 03:20:42;;;;;;;12.27;5.28;;;15.60;99.90;;;;;;5050642;28;20466;-68
2023/08/01 03:23:08;;;;;;;8.05;3.65;;;15.70;99.90;;;;;;5034018;28;20418;-68
2023/08/01 03:25:35;;;;;;;4.95;2.15;;;15.70;99.90;;;;;;5035083;28;20049;-67
2023/08/01 03:28:01;;;;;;;4.60;1.85;;;15.50;99.90;;;;;;5035770;28;20045;-68
2023/08/01 03:30:27;;;;;;;4.05;1.73;;;15.50;99.90;;;;;;5033562;28;20111;-68
2023/08/01 03:32:53;;;;;;;4.80;1.70;;;15.40;99.90;;;;;;5016503;28;20115;-68
2023/08/01 03:35:20;;;;;;;3.05;1.73;;;15.40;99.90;;;;;;5015991;28;20104;-67
2023/08/01 03:37:46;;;;;;;6.40;2.20;;;15.40;99.90;;;;;;5016317;28;20344;-67
2023/08/01 03:40:12;;;;;;;3.42;1.60;;;15.40;99.90;;;;;;5017075;28;20053;-67
2023/08/01 03:42:40;;;;;;;4.07;1.80;;;15.30;99.90;;;;;;5036191;28;20056;-67
2023/08/01 03:45:07;;;;;;;2.88;1.50;;;15.30;99.90;;;;;;5019813;28;20107;-68
2023/08/01 03:47:33;;;;;;;3.47;1.70;;;15.30;99.90;;;;;;5036194;28;20118;-68
2023/08/01 03:49:59;;;;;;;4.13;1.80;;;15.20;99.90;;;;;;5036002;28;20045;-67
2023/08/01 03:52:26;;;;;;;4.55;1.65;;;15.40;99.90;;;;;;5036398;28;20056;-67
2023/08/01 03:54:56;;;;;;;3.63;1.63;;;15.30;99.90;;;;;;5053842;28;20053;-67
2023/08/01 03:57:22;;;;;;;3.42;1.58;;;15.30;99.90;;;;;;5020053;28;20048;-67
2023/08/01 03:59:48;;;;;;;3.78;1.73;;;15.20;99.90;;;;;;5021783;28;20045;-67
2023/08/01 04:02:15;;;;;;;2.83;1.60;;;15.30;99.90;;;;;;5023271;28;20049;-67
2023/08/01 04:04:42;;;;;;;3.08;1.80;;;15.30;99.90;;;;;;5039561;28;20044;-67
2023/08/01 04:07:08;;;;;;;3.38;1.88;;;15.30;99.90;;;;;;5039527;28;20379;-67
2023/08/01 04:09:34;;;;;;;2.85;1.73;;;15.20;99.90;;;;;;5039519;28;20049;-67
2023/08/01 04:12:00;;;;;;;3.45;1.70;;;15.30;99.90;;;;;;5039410;28;20110;-68
2023/08/01 04:14:27;;;;;;;4.05;1.75;;;15.20;99.90;;;;;;5022866;28;20102;-67
2023/08/01 04:16:53;;;;;;;2.45;1.73;;;15.30;99.90;;;;;;5039636;28;20409;-67
2023/08/01 04:19:19;;;;;;;3.92;1.75;;;15.30;99.90;;;;;;5039240;28;20048;-68
2023/08/01 04:21:46;;;;;;;3.03;1.55;;;15.40;99.90;;;;;;5022910;28;20068;-67
2023/08/01 04:24:12;;;;;;;4.22;1.85;;;15.40;99.90;;;;;;5039596;28;20049;-68
2023/08/01 04:26:38;;;;;;;2.40;1.60;;;15.30;99.90;;;;;;5039319;28;20049;-68
2023/08/01 04:29:04;;;;;;;4.80;1.80;;;15.30;99.90;;;;;;5039618;28;20045;-67
2023/08/01 04:31:31;;;;;;;4.53;1.70;;;15.40;99.90;;;;;;5039314;28;20114;-67
2023/08/01 04:33:57;;;;;;;3.75;1.77;;;15.50;99.90;;;;;;5039003;28;20052;-68
2023/08/01 04:36:23;;;;;;;4.13;2.00;;;15.60;99.90;;;;;;5039008;28;20053;-67
2023/08/01 04:38:49;;;;;;;4.22;2.00;;;15.60;99.90;;;;;;5038842;28;20057;-68
2023/08/01 04:41:16;;;;;;;3.13;1.50;;;15.60;99.90;;;;;;5038891;28;20619;-68
2023/08/01 04:43:42;;;;;;;4.28;1.67;;;15.60;99.90;;;;;;5038983;28;20354;-67
2023/08/01 04:46:08;;;;;;;3.08;2.03;;;15.70;99.90;;;;;;5038818;28;20037;-67
2023/08/01 04:48:34;;;;;;;3.72;1.80;;;15.70;99.90;;;;;;5038864;28;20114;-67
2023/08/01 04:51:01;;;;;;;4.85;1.73;;;15.70;99.90;;;;;;5029875;28;20057;-68
2023/08/01 04:53:27;;;;;;;3.97;1.77;;;15.70;99.90;;;;;;5036685;28;20095;-68
2023/08/01 04:55:53;;;;;;;4.88;1.92;;;15.60;99.90;;;;;;5038246;28;20465;-67
2023/08/01 04:58:19;;;;;;;2.80;1.80;;;15.70;99.90;;;;;;5039018;28;20084;-68
2023/08/01 05:00:46;;;;;;;3.30;1.92;;;15.70;99.90;;;;;;5037584;28;20416;-68
2023/08/01 05:03:12;;;;;;;3.97;2.22;;;15.70;99.90;;;;;;5038493;28;20056;-67
2023/08/01 05:05:39;;;;;;;5.60;2.47;;;15.80;99.90;;;;;;5037788;28;20044;-68
2023/08/01 05:08:06;;;;;;;5.45;2.55;;;15.70;99.90;;;;;;5038197;28;20424;-67
2023/08/01 05:10:32;;;;;;;4.80;2.13;;;15.80;99.90;;;;;;5038159;28;20404;-67
2023/08/01 05:12:59;;;;;;;7.13;2.50;;;15.60;99.90;;;;;;5043546;28;20048;-69
2023/08/01 05:15:25;;;;;;;6.28;2.33;;;15.70;99.90;;;;;;5036522;28;20049;-67
2023/08/01 05:17:52;;;;;;;4.28;2.20;;;15.60;99.90;;;;;;5053798;28;20430;-68
2023/08/01 05:20:18;;;;;;;5.05;2.10;;;15.70;99.90;;;;;;5034262;28;20110;-67
2023/08/01 05:22:45;;;;;;;8.45;2.58;;;15.70;99.90;;;;;;5061325;28;20036;-68
2023/08/01 05:25:11;;;;;;;4.95;2.08;;;15.60;99.90;;;;;;5039352;28;20052;-67
2023/08/01 05:27:37;;;;;;;4.43;2.22;;;15.60;99.90;;;;;;5037562;28;20482;-67
2023/08/01 05:30:04;;;;;;;3.90;2.13;;;15.50;99.90;;;;;;5036170;28;20175;-67
2023/08/01 05:32:30;;;;;;;4.07;1.90;;;15.60;99.90;;;;;;5035041;28;20115;-68
2023/08/01 05:34:56;;;;;;;3.85;1.80;;;15.50;99.90;;;;;;5035832;28;20441;-68
2023/08/01 05:37:24;;;;;;;3.28;1.70;;;15.40;99.90;;;;;;5019922;28;20048;-67
2023/08/01 05:39:50;;;;;;;3.97;1.98;;;15.40;99.90;;;;;;5035377;28;20055;-68
2023/08/01 05:42:17;;;;;;;6.70;2.20;;;15.50;99.90;;;;;;5034259;28;20455;-67
2023/08/01 05:44:43;;;;;;;5.40;2.17;;;15.50;99.90;;;;;;5048181;28;20045;-67
2023/08/01 05:47:10;;;;;;;3.92;2.03;;;15.50;99.90;;;;;;5035395;28;20053;-67
2023/08/01 05:49:36;;;;;;;4.97;2.15;;;15.30;99.90;;;;;;5033827;28;20057;-66
2023/08/01 05:52:02;;;;;;;4.45;2.03;;;15.40;99.90;;;;;;5010047;28;20057;-67
2023/08/01 05:54:29;;;;;;;4.05;2.20;;;15.40;99.90;;;;;;5022126;28;20072;-66
2023/08/01 05:56:55;;;;;;;5.35;2.30;;;15.40;99.90;;;;;;5033747;28;20049;-67
2023/08/01 05:59:21;;;;;;;4.18;2.13;;;15.50;99.90;;;;;;5033394;28;20053;-67
2023/08/01 06:01:48;;;;;;;5.63;2.33;;;15.50;99.90;;;;;;5033311;28;20068;-67
2023/08/01 06:04:14;;;;;;;6.90;2.40;;;15.50;99.90;;;;;;5035305;28;20386;-67
2023/08/01 06:06:40;;;;;;;4.35;2.30;;;15.60;99.90;;;;;;5052490;28;20458;-67
2023/08/01 06:09:07;;;;;;;4.00;2.17;;;15.50;99.90;;;;;;5035817;28;20136;-68
2023/08/01 06:11:33;;;;;;;4.07;2.00;;;15.60;99.90;;;;;;5035443;28;20049;-67
2023/08/01 06:13:59;;;;;;;3.42;1.90;;;15.50;99.90;;;;;;5036378;28;20049;-67
2023/08/01 06:16:26;;;;;;;3.75;1.60;;;15.50;99.90;;;;;;5035899;28;20057;-67
2023/08/01 06:18:52;;;;;;;3.30;1.95;;;15.60;99.90;;;;;;5019945;28;20053;-68
2023/08/01 06:21:18;;;;;;;4.28;1.90;;;15.60;99.90;;;;;;5035513;28;20110;-67
2023/08/01 06:23:45;;;;;;;4.68;1.80;;;15.60;99.90;;;;;;5036781;28;20102;-68
2023/08/01 06:26:11;;;;;;;4.78;2.30;;;15.60;99.90;;;;;;5037133;28;20049;-66
2023/08/01 06:28:37;;;;;;;3.47;1.80;;;15.70;99.90;;;;;;5036875;28;20045;-66
2023/08/01 06:31:04;;;;;;;4.32;1.92;;;15.70;99.90;;;;;;5036872;28;20053;-66
2023/08/01 06:33:30;;;;;;;5.45;2.25;;;15.90;99.90;;;;;;5036806;28;20086;-66
2023/08/01 06:35:56;;;;;;;3.63;1.85;;;15.90;99.90;;;;;;5036597;28;20061;-66
2023/08/01 06:38:24;;;;;;;4.63;1.95;;;15.80;99.90;;;;;;5036481;28;20053;-66
2023/08/01 06:40:53;;;;;;;6.70;2.40;;;15.90;99.90;;;;;;5020545;28;20045;-66
2023/08/01 06:43:19;;;;;;;5.15;2.30;;;15.80;99.90;;;;;;5020392;28;20128;-66
2023/08/01 06:45:45;;;;;;;5.35;2.05;;;15.80;99.90;;;;;;5036218;28;20040;-66
2023/08/01 06:48:11;;;;;;;4.03;2.00;;;15.80;99.90;;;;;;5035571;28;20457;-66
2023/08/01 06:50:38;;;;;;;5.35;2.83;;;15.70;99.90;;;;;;5035906;28;20059;-66
2023/08/01 06:53:04;;;;;;;4.63;2.53;;;15.70;99.90;;;;;;5054181;28;20106;-66
2023/08/01 06:55:31;;;;;;;6.13;2.92;;;15.70;99.90;;;;;;5036435;28;20053;-66
2023/08/01 06:57:57;;;;;;;4.38;2.00;;;15.90;99.90;;;;;;5036696;28;20083;-66
2023/08/01 07:00:23;;;;;;;5.95;2.13;;;16.00;99.90;;;;;;5036366;28;20045;-67
2023/08/01 07:02:50;;;;;;;4.80;2.33;;;16.10;99.90;;;;;;5036493;28;20049;-66
2023/08/01 07:05:17;;;;;;;5.05;2.80;;;16.30;99.90;;;;;;5035715;28;20059;-66
2023/08/01 07:07:44;;;;;;;5.55;2.40;;;16.50;99.90;;;;;;5036205;28;20107;-67
2023/08/01 07:10:11;;;;;;;7.10;2.30;;;16.60;99.90;;;;;;5036381;28;20479;-67
2023/08/01 07:12:37;;;;;;;6.47;2.35;;;16.60;99.90;;;;;;5036347;28;20053;-66
2023/08/01 07:15:04;;;;;;;6.05;2.42;;;16.70;99.90;;;;;;5036759;28;20056;-67
2023/08/01 07:17:30;;;;;;;5.30;2.42;;;16.60;99.90;;;;;;5036456;28;20060;-66
2023/08/01 07:19:56;;;;;;;4.10;2.08;;;16.90;99.90;;;;;;5036490;28;20604;-66
2023/08/01 07:22:22;;;;;;;5.20;2.10;;;16.90;99.90;;;;;;5036231;28;20056;-66
2023/08/01 07:24:55;;;;;;;6.18;2.45;;;17.00;99.90;;;;;;5036080;28;20447;-66
2023/08/01 07:27:22;;;;;;;6.35;2.45;;;16.90;99.90;;;;;;5019637;28;20376;-66
2023/08/01 07:29:49;;;;;;;6.13;2.65;;;16.90;99.90;;;;;;5019738;28;20380;-66
2023/08/01 07:32:15;;;;;;;8.88;2.42;;;17.00;99.90;;;;;;5036275;28;20095;-67
2023/08/01 07:34:41;;;;;;;8.63;2.15;;;16.90;99.90;;;;;;5039944;28;20052;-66
2023/08/01 07:37:08;;;;;;;6.75;2.65;;;16.70;99.90;;;;;;5039431;28;20053;-66
2023/08/01 07:39:34;;;;;;;5.63;2.67;;;16.80;99.90;;;;;;5020744;28;20053;-67
2023/08/01 07:42:01;;;;;;;12.10;3.20;;;16.60;99.90;;;;;;4999188;28;20049;-66
2023/08/01 07:44:27;;;;;;;8.15;3.00;;;16.60;99.90;;;;;;4998977;28;20054;-67
2023/08/01 07:46:53;;;;;;;9.75;3.30;;;16.60;99.90;;;;;;4983038;28;20050;-67
2023/08/01 07:49:20;;;;;;;6.95;2.90;;;16.60;99.90;;;;;;4999106;28;20046;-66
2023/08/01 07:51:46;;;;;;;7.13;2.80;;;16.50;99.90;;;;;;5009222;28;20405;-66
2023/08/01 07:54:12;;;;;;;8.55;2.78;;;16.50;99.90;;;;;;5018023;28;20049;-66
2023/08/01 07:56:38;;;;;;;6.35;2.83;;;16.50;99.90;;;;;;5001515;28;20045;-67
2023/08/01 07:59:05;;;;;;;9.60;3.72;;;16.60;99.90;;;;;;5018395;28;20537;-66
2023/08/01 08:01:31;;;;;;;10.57;3.08;;;16.60;99.90;;;;;;5017961;28;20045;-66
2023/08/01 08:03:57;;;;;;;10.55;3.78;;;16.60;99.90;;;;;;5018527;28;20432;-66
2023/08/01 08:06:24;;;;;;;10.80;3.72;;;16.70;99.90;;;;;;5017769;28;20052;-67
2023/08/01 08:08:50;;;;;;;7.22;3.72;;;16.70;99.90;;;;;;5002039;28;20061;-67
2023/08/01 08:11:16;;;;;;;14.10;4.03;;;16.70;99.90;;;;;;5017962;28;20052;-66
2023/08/01 08:13:42;;;;;;;11.23;4.13;;;16.90;99.90;;;;;;5018834;28;20398;-67
2023/08/01 08:16:09;;;;;;;11.30;4.00;;;16.90;99.90;;;;;;5017903;28;20097;-68
2023/08/01 08:18:35;;;;;;;12.20;3.83;;;17.10;99.90;;;;;;5018229;28;20068;-66
2023/08/01 08:21:01;;;;;;;8.75;3.80;;;17.20;99.90;;;;;;5018280;28;20061;-66
2023/08/01 08:23:27;;;;;;;8.13;4.00;;;17.20;99.90;;;;;;5018537;28;20126;-67
2023/08/01 08:25:54;;;;;;;12.13;4.70;;;17.40;99.90;;;;;;5018216;28;20042;-67
2023/08/01 08:28:32;;;;;;;10.27;4.05;;;17.40;99.90;;;;;;5002604;28;20046;-67
2023/08/01 08:31:00;;;;;;;16.17;4.20;;;17.50;99.90;;;;;;5018753;28;20052;-67
2023/08/01 08:33:26;;;;;;;8.70;3.85;;;17.60;99.90;;;;;;5019028;28;20108;-67
2023/08/01 08:35:52;;;;;;;7.63;3.25;;;17.50;99.90;;;;;;5018443;28;20056;-67
2023/08/01 08:38:19;;;;;;;7.68;3.30;;;17.40;99.90;;;;;;5011600;28;20533;-66
2023/08/01 08:41:15;;;;;;;7.00;2.95;;;17.40;99.90;;;;;;5021321;28;20048;-67
2023/08/01 08:43:42;;;;;;;8.70;3.40;;;17.30;99.90;;;;;;5038042;28;20152;-66
2023/08/01 08:46:10;;;;;;;8.50;3.83;;;17.20;99.90;;;;;;5020673;28;20477;-66
2023/08/01 08:48:38;;;;;;;9.70;3.65;;;17.20;99.90;;;;;;5038211;28;20053;-68
2023/08/01 08:51:06;;;;;;;9.88;3.85;;;17.10;99.90;;;;;;5020237;28;20053;-66
2023/08/01 08:53:34;;;;;;;12.88;4.32;;;17.10;99.90;;;;;;5037203;28;20060;-67
2023/08/01 08:56:01;;;;;;;9.40;3.63;;;17.20;99.90;;;;;;5036326;28;20514;-67
2023/08/01 08:58:31;;;;;;;8.98;3.30;;;17.20;99.90;;;;;;5036432;28;20076;-66
2023/08/01 09:01:01;;;;;;;8.48;3.42;;;17.30;99.90;;;;;;5019567;28;20049;-66
2023/08/01 09:03:28;;;;;;;8.82;3.72;;;17.20;99.90;;;;;;5035952;28;20063;-66
2023/08/01 09:06:19;;;;;;;10.73;4.15;;;17.00;99.90;;;;;;5035739;28;20049;-66
2023/08/01 09:09:01;;;;;;;9.23;4.00;;;16.90;99.90;;;;;;5036062;28;20462;-66
2023/08/01 09:11:27;;;;;;;7.75;3.70;;;16.70;99.90;;;;;;5035385;28;20503;-66
2023/08/01 09:13:55;;;;;;;6.90;4.22;;;16.70;99.90;;;;;;5036286;28;20045;-66
2023/08/01 09:16:21;;;;;;;10.95;3.85;;;16.80;99.90;;;;;;5034783;28;20064;-68
2023/08/01 09:18:48;;;;;;;9.60;3.95;;;16.90;99.90;;;;;;5035692;28;20060;-66
2023/08/01 09:21:17;;;;;;;13.82;4.18;;;16.80;99.90;;;;;;5035062;28;20432;-68
2023/08/01 09:23:43;;;;;;;6.80;3.40;;;16.90;99.90;;;;;;5036001;28;20075;-66
2023/08/01 09:26:14;;;;;;;8.10;4.00;;;17.00;99.90;;;;;;5034965;28;20060;-67
2023/08/01 09:28:40;;;;;;;8.38;3.40;;;17.10;99.90;;;;;;5035642;28;20107;-66
2023/08/01 09:31:07;;;;;;;10.32;3.60;;;16.90;99.90;;;;;;5035272;28;20048;-67
2023/08/01 09:33:40;;;;;;;8.35;4.30;;;17.10;99.90;;;;;;5035268;28;20052;-66
2023/08/01 09:36:09;;;;;;;8.98;3.75;;;17.10;99.90;;;;;;5035305;28;20095;-66
2023/08/01 09:38:37;;;;;;;8.27;3.58;;;17.00;99.90;;;;;;5035909;28;20065;-65
2023/08/01 09:41:04;;;;;;;8.30;3.90;;;17.00;99.90;;;;;;5018791;28;20504;-67
2023/08/01 09:43:37;;;;;;;7.53;2.83;;;17.10;99.90;;;;;;5035727;28;20048;-66
2023/08/01 09:46:06;;;;;;;8.05;2.47;;;16.90;99.90;;;;;;5018201;28;20052;-67
2023/08/01 09:48:33;;;;;;;7.22;2.80;;;16.80;99.90;;;;;;5035072;28;20482;-67
2023/08/01 09:51:07;;;;;;;7.18;3.10;;;16.70;99.90;;;;;;5031763;28;20061;-66
2023/08/01 09:53:35;;;;;;;6.15;3.00;;;16.60;99.90;;;;;;5016959;28;20057;-66
2023/08/01 09:56:02;;;;;;;5.88;3.30;;;16.60;99.90;;;;;;5015223;28;20049;-66
2023/08/01 09:58:35;;;;;;;7.90;3.50;;;16.50;99.90;;;;;;5015960;28;20441;-65
2023/08/01 10:01:03;;;;;;;8.23;3.72;;;16.50;99.90;;;;;;5016388;28;20045;-67
2023/08/01 10:03:30;;;;;;;8.73;3.65;;;16.50;99.90;;;;;;5033627;28;20409;-66
2023/08/01 10:05:57;;;;;;;6.78;3.20;;;16.40;99.90;;;;;;4999245;28;20049;-66
2023/08/01 10:08:24;;;;;;;9.00;3.30;;;16.40;99.90;;;;;;5015364;28;20045;-66
2023/08/01 10:10:52;;;;;;;6.78;2.97;;;16.40;99.90;;;;;;5016138;28;20052;-66
2023/08/01 10:13:22;;;;;;;5.70;3.10;;;16.40;99.90;;;;;;5016035;28;20060;-67
2023/08/01 10:15:50;;;;;;;7.13;3.20;;;16.50;99.90;;;;;;5015469;28;20500;-67
2023/08/01 10:18:18;;;;;;;5.57;3.17;;;16.30;99.90;;;;;;5014750;28;20437;-66
2023/08/01 10:20:45;;;;;;;7.63;2.90;;;16.50;99.90;;;;;;5016336;28;20055;-68
2023/08/01 10:23:12;;;;;;;9.32;3.33;;;16.60;99.90;;;;;;5035332;28;20095;-66
2023/08/01 10:25:39;;;;;;;6.93;3.03;;;16.60;99.90;;;;;;5035095;28;20049;-66
2023/08/01 10:28:06;;;;;;;7.57;3.28;;;16.60;99.90;;;;;;5035650;28;20068;-67
2023/08/01 10:30:32;;;;;;;6.25;3.10;;;16.80;99.90;;;;;;5035894;28;20048;-67
2023/08/01 10:33:00;;;;;;;6.93;2.83;;;17.10;99.90;;;;;;5036322;28;20088;-67
2023/08/01 10:35:36;;;;;;;6.63;3.33;;;17.20;99.90;;;;;;5036308;28;20064;-67
2023/08/01 10:38:10;;;;;;;9.38;3.90;;;17.30;99.90;;;;;;5035797;28;20049;-66
2023/08/01 10:40:42;;;;;;;12.23;3.90;;;17.40;99.90;;;;;;5033702;28;20064;-68
2023/08/01 10:43:25;;;;;;;8.43;3.22;;;17.10;99.90;;;;;;5014525;28;20314;-67
2023/08/01 10:46:02;;;;;;;7.00;2.72;;;16.80;99.90;;;;;;5014118;28;20060;-67
2023/08/01 10:48:28;;;;;;;4.40;2.10;;;16.40;99.90;;;;;;4998020;28;20481;-68
2023/08/01 10:50:59;;;;;;;5.30;2.00;;;16.30;99.90;;;;;;5047594;28;20055;-68
2023/08/01 10:53:38;;;;;;;5.68;2.20;;;16.20;99.90;;;;;;5014458;28;20053;-67
2023/08/01 10:56:05;;;;;;;5.45;2.15;;;16.10;99.90;;;;;;4997511;28;20482;-69
2023/08/01 10:58:31;;;;;;;6.32;2.30;;;16.10;99.90;;;;;;5014323;28;20053;-67
2023/08/01 11:00:59;;;;;;;6.97;1.95;;;16.20;99.90;;;;;;5016628;28;20049;-67
2023/08/01 11:03:41;;;;;;;8.20;3.03;;;16.20;99.90;;;;;;5034587;28;20049;-67
2023/08/01 11:06:08;;;;;;;7.47;2.40;;;16.30;99.90;;;;;;5018486;28;20053;-67
2023/08/01 11:08:35;;;;;;;7.28;2.83;;;16.50;99.90;;;;;;5037329;28;20056;-66
2023/08/01 11:11:03;;;;;;;5.50;2.80;;;16.60;99.90;;;;;;5035779;28;20121;-67
2023/08/01 11:13:29;;;;;;;6.28;2.72;;;16.80;99.90;;;;;;5003112;28;20057;-68
2023/08/01 11:15:56;;;;;;;7.95;3.83;;;17.00;99.90;;;;;;5019094;28;20444;-69
2023/08/01 11:18:23;;;;;;;7.45;3.30;;;17.20;99.90;;;;;;5003700;28;20049;-68
2023/08/01 11:20:50;;;;;;;7.90;3.35;;;17.50;99.90;;;;;;5021860;28;20053;-68
2023/08/01 11:23:16;;;;;;;8.07;2.75;;;17.90;99.90;;;;;;5040047;28;20454;-67
2023/08/01 11:25:45;;;;;;;6.32;2.50;;;18.20;99.90;;;;;;5039880;28;20045;-68
2023/08/01 11:28:15;;;;;;;6.15;2.42;;;18.50;99.90;;;;;;5023971;28;20067;-67
2023/08/01 11:30:42;;;;;;;5.53;2.58;;;18.70;99.90;;;;;;5040351;28;20045;-67
2023/08/01 11:33:20;;;;;;;4.60;2.70;;;18.90;99.90;;;;;;5024275;28;20366;-67
2023/08/01 11:36:00;;;;;;;7.25;2.53;;;19.10;99.90;;;;;;5023283;28;20405;-67
2023/08/01 11:38:29;;;;;;;5.95;2.70;;;19.40;99.90;;;;;;5023875;28;20452;-67
2023/08/01 11:40:57;;;;;;;8.38;3.00;;;19.50;99.90;;;;;;5023705;28;20052;-67
2023/08/01 11:43:23;;;;;;;9.70;3.42;;;19.70;99.90;;;;;;5040316;28;20378;-67
2023/08/01 11:45:55;;;;;;;9.63;2.58;;;19.70;99.90;;;;;;5040205;28;20092;-67
2023/08/01 11:48:23;;;;;;;6.22;2.75;;;20.00;99.90;;;;;;5040417;28;20049;-67
2023/08/01 11:50:56;;;;;;;8.10;2.63;;;19.90;99.90;;;;;;5040057;28;20053;-68
2023/08/01 11:53:22;;;;;;;7.90;2.40;;;19.80;99.90;;;;;;5039851;28;20412;-68
2023/08/01 11:55:53;;;;;;;4.18;2.70;;;19.70;99.90;;;;;;5039992;28;20061;-68
2023/08/01 11:58:29;;;;;;;6.90;2.13;;;19.80;99.90;;;;;;5040295;28;20057;-67
2023/08/01 12:01:07;;;;;;;3.75;2.38;;;20.00;99.90;;;;;;5040538;28;20049;-67
2023/08/01 12:03:51;;;;;;;5.72;2.20;;;20.10;99.90;;;;;;5040063;28;20055;-68
2023/08/01 12:06:20;;;;;;;5.50;2.03;;;20.00;99.90;;;;;;5023366;28;20048;-67
2023/08/01 12:08:48;;;;;;;7.60;2.67;;;20.40;99.90;;;;;;5040042;28;20462;-67
2023/08/01 12:11:26;;;;;;;5.68;2.03;;;20.40;99.90;;;;;;5039701;28;20053;-67
2023/08/01 12:14:11;;;;;;;4.75;2.00;;;20.60;99.90;;;;;;5023597;28;20049;-67
2023/08/01 12:16:39;;;;;;;6.22;2.20;;;20.80;99.90;;;;;;5023312;28;20500;-67
2023/08/01 12:19:06;;;;;;;6.95;2.30;;;20.70;99.90;;;;;;5022599;28;20102;-67
2023/08/01 12:21:33;;;;;;;4.93;1.90;;;20.70;99.90;;;;;;5022364;28;20087;-67
2023/08/01 12:24:00;;;;;;;7.40;2.63;;;20.50;99.90;;;;;;5039449;28;20049;-67
2023/08/01 12:26:26;;;;;;;4.78;1.80;;;20.50;99.90;;;;;;5039340;28;20106;-67
2023/08/01 12:28:52;;;;;;;5.35;2.05;;;20.40;99.90;;;;;;5039728;28;20059;-67
2023/08/01 12:31:21;;;;;;;4.65;2.00;;;20.20;99.90;;;;;;5023023;28;20140;-67
2023/08/01 12:33:48;;;;;;;5.75;1.95;;;20.30;99.90;;;;;;5039625;28;20053;-67
2023/08/01 12:36:15;;;;;;;3.50;1.77;;;20.30;99.90;;;;;;5038643;28;20053;-67
2023/08/01 12:38:42;;;;;;;5.20;2.28;;;20.10;99.90;;;;;;5039285;28;20053;-67
2023/08/01 12:41:08;;;;;;;4.95;2.15;;;20.20;99.90;;;;;;5039398;28;20098;-67
2023/08/01 12:43:34;;;;;;;4.28;2.05;;;20.10;99.90;;;;;;5039157;28;20045;-66
2023/08/01 12:46:01;;;;;;;6.47;2.67;;;20.20;99.90;;;;;;5039228;28;20056;-66